sensor_id;sensor_type;location;lat;lon;timestamp;temperature;humidity
913;DHT22;443;51.448;7.028;2022-11-27T00:00:46;13.30;79.00
913;DHT22;443;51.448;7.028;2022-11-27T00:03:14;13.00;75.20
913;DHT22;443;51.448;7.028;2022-11-27T00:05:50;13.00;76.90
913;DHT22;443;51.448;7.028;2022-11-27T00:08:17;13.00;75.60
913;DHT22;443;51.448;7.028;2022-11-27T00:10:43;13.00;75.90
913;DHT22;443;51.448;7.028;2022-11-27T00:13:10;13.10;78.00
913;DHT22;443;51.448;7.028;2022-11-27T00:15:37;13.00;74.50
913;DHT22;443;51.448;7.028;2022-11-27T00:18:04;12.80;74.30
913;DHT22;443;51.448;7.028;2022-11-27T00:20:32;12.80;75.30
913;DHT22;443;51.448;7.028;2022-11-27T00:22:59;12.90;77.20
913;DHT22;443;51.448;7.028;2022-11-27T00:25:25;12.80;74.60
913;DHT22;443;51.448;7.028;2022-11-27T00:27:52;12.90;76.70
913;DHT22;443;51.448;7.028;2022-11-27T00:30:19;12.90;76.70
913;DHT22;443;51.448;7.028;2022-11-27T00:32:46;12.90;75.00
913;DHT22;443;51.448;7.028;2022-11-27T00:35:13;12.90;74.30
913;DHT22;443;51.448;7.028;2022-11-27T00:37:41;12.90;77.30
913;DHT22;443;51.448;7.028;2022-11-27T00:40:09;12.90;74.70
913;DHT22;443;51.448;7.028;2022-11-27T00:42:35;12.80;74.40
913;DHT22;443;51.448;7.028;2022-11-27T00:45:03;12.90;76.80
913;DHT22;443;51.448;7.028;2022-11-27T00:47:29;12.90;74.00
913;DHT22;443;51.448;7.028;2022-11-27T00:49:56;12.80;74.80
913;DHT22;443;51.448;7.028;2022-11-27T00:52:23;12.90;77.00
913;DHT22;443;51.448;7.028;2022-11-27T00:54:51;12.80;74.80
913;DHT22;443;51.448;7.028;2022-11-27T00:57:17;12.90;74.00
913;DHT22;443;51.448;7.028;2022-11-27T00:59:44;12.80;74.70
913;DHT22;443;51.448;7.028;2022-11-27T01:02:11;12.80;74.40
913;DHT22;443;51.448;7.028;2022-11-27T01:04:38;12.80;74.00
913;DHT22;443;51.448;7.028;2022-11-27T01:07:04;12.80;73.90
913;DHT22;443;51.448;7.028;2022-11-27T01:09:31;12.80;74.60
913;DHT22;443;51.448;7.028;2022-11-27T01:11:59;12.70;73.70
913;DHT22;443;51.448;7.028;2022-11-27T01:14:26;12.60;73.10
913;DHT22;443;51.448;7.028;2022-11-27T01:16:53;12.70;76.30
913;DHT22;443;51.448;7.028;2022-11-27T01:19:19;12.70;76.00
913;DHT22;443;51.448;7.028;2022-11-27T01:21:46;12.80;76.60
913;DHT22;443;51.448;7.028;2022-11-27T01:24:15;12.80;75.70
913;DHT22;443;51.448;7.028;2022-11-27T01:26:42;12.90;77.00
913;DHT22;443;51.448;7.028;2022-11-27T01:29:11;12.80;75.20
913;DHT22;443;51.448;7.028;2022-11-27T01:31:37;12.80;73.30
913;DHT22;443;51.448;7.028;2022-11-27T01:34:07;12.70;74.60
913;DHT22;443;51.448;7.028;2022-11-27T01:36:34;12.70;74.20
913;DHT22;443;51.448;7.028;2022-11-27T01:39:02;12.80;75.40
913;DHT22;443;51.448;7.028;2022-11-27T01:41:31;12.80;76.00
913;DHT22;443;51.448;7.028;2022-11-27T01:44:00;12.90;77.60
913;DHT22;443;51.448;7.028;2022-11-27T01:46:32;12.90;75.70
913;DHT22;443;51.448;7.028;2022-11-27T01:49:12;12.90;74.80
913;DHT22;443;51.448;7.028;2022-11-27T01:51:43;12.90;75.60
913;DHT22;443;51.448;7.028;2022-11-27T01:54:10;12.90;75.10
913;DHT22;443;51.448;7.028;2022-11-27T01:56:37;12.90;76.10
913;DHT22;443;51.448;7.028;2022-11-27T01:59:06;12.90;76.80
913;DHT22;443;51.448;7.028;2022-11-27T02:01:34;12.90;74.10
913;DHT22;443;51.448;7.028;2022-11-27T02:04:01;12.90;75.10
913;DHT22;443;51.448;7.028;2022-11-27T02:06:28;12.80;74.50
913;DHT22;443;51.448;7.028;2022-11-27T02:08:55;12.70;73.60
913;DHT22;443;51.448;7.028;2022-11-27T02:11:29;12.80;76.20
913;DHT22;443;51.448;7.028;2022-11-27T02:14:09;12.80;75.70
913;DHT22;443;51.448;7.028;2022-11-27T02:16:52;12.80;75.40
913;DHT22;443;51.448;7.028;2022-11-27T02:19:32;12.70;74.90
913;DHT22;443;51.448;7.028;2022-11-27T02:22:12;12.60;73.30
913;DHT22;443;51.448;7.028;2022-11-27T02:24:50;12.60;74.40
913;DHT22;443;51.448;7.028;2022-11-27T02:27:55;12.60;74.20
913;DHT22;443;51.448;7.028;2022-11-27T02:30:24;12.60;74.00
913;DHT22;443;51.448;7.028;2022-11-27T02:32:56;12.70;74.30
913;DHT22;443;51.448;7.028;2022-11-27T02:35:27;12.60;73.20
913;DHT22;443;51.448;7.028;2022-11-27T02:37:58;12.60;74.40
913;DHT22;443;51.448;7.028;2022-11-27T02:40:29;12.60;74.40
913;DHT22;443;51.448;7.028;2022-11-27T02:42:58;12.50;72.90
913;DHT22;443;51.448;7.028;2022-11-27T02:45:32;12.60;73.80
913;DHT22;443;51.448;7.028;2022-11-27T02:48:00;12.60;73.70
913;DHT22;443;51.448;7.028;2022-11-27T02:50:30;12.60;74.10
913;DHT22;443;51.448;7.028;2022-11-27T02:53:03;12.60;73.10
913;DHT22;443;51.448;7.028;2022-11-27T02:55:32;12.80;79.80
913;DHT22;443;51.448;7.028;2022-11-27T02:58:02;12.60;75.20
913;DHT22;443;51.448;7.028;2022-11-27T03:00:31;12.60;74.00
913;DHT22;443;51.448;7.028;2022-11-27T03:03:02;12.60;74.90
913;DHT22;443;51.448;7.028;2022-11-27T03:05:32;12.80;78.30
913;DHT22;443;51.448;7.028;2022-11-27T03:08:04;12.70;74.70
913;DHT22;443;51.448;7.028;2022-11-27T03:10:42;12.60;74.70
913;DHT22;443;51.448;7.028;2022-11-27T03:13:11;12.60;75.30
913;DHT22;443;51.448;7.028;2022-11-27T03:15:45;12.60;74.90
913;DHT22;443;51.448;7.028;2022-11-27T03:18:22;12.70;75.10
913;DHT22;443;51.448;7.028;2022-11-27T03:20:59;12.60;74.80
913;DHT22;443;51.448;7.028;2022-11-27T03:23:26;12.60;73.50
913;DHT22;443;51.448;7.028;2022-11-27T03:25:53;12.60;76.70
913;DHT22;443;51.448;7.028;2022-11-27T03:28:21;12.60;72.60
913;DHT22;443;51.448;7.028;2022-11-27T03:30:49;12.60;73.90
913;DHT22;443;51.448;7.028;2022-11-27T03:33:16;12.70;76.40
913;DHT22;443;51.448;7.028;2022-11-27T03:35:43;12.70;75.60
913;DHT22;443;51.448;7.028;2022-11-27T03:38:10;12.60;73.70
913;DHT22;443;51.448;7.028;2022-11-27T03:40:44;12.60;75.00
913;DHT22;443;51.448;7.028;2022-11-27T03:43:14;12.70;74.60
913;DHT22;443;51.448;7.028;2022-11-27T03:45:54;12.50;72.50
913;DHT22;443;51.448;7.028;2022-11-27T03:48:28;12.60;75.00
913;DHT22;443;51.448;7.028;2022-11-27T03:51:04;12.50;72.30
913;DHT22;443;51.448;7.028;2022-11-27T03:53:37;12.50;75.00
913;DHT22;443;51.448;7.028;2022-11-27T03:56:12;12.70;80.10
913;DHT22;443;51.448;7.028;2022-11-27T03:58:44;12.60;72.70
913;DHT22;443;51.448;7.028;2022-11-27T04:01:16;12.60;73.80
913;DHT22;443;51.448;7.028;2022-11-27T04:03:45;12.70;76.00
913;DHT22;443;51.448;7.028;2022-11-27T04:06:12;12.80;75.10
913;DHT22;443;51.448;7.028;2022-11-27T04:08:39;12.60;72.80
913;DHT22;443;51.448;7.028;2022-11-27T04:11:06;12.60;73.50
913;DHT22;443;51.448;7.028;2022-11-27T04:13:33;12.60;74.20
913;DHT22;443;51.448;7.028;2022-11-27T04:16:01;12.60;72.60
913;DHT22;443;51.448;7.028;2022-11-27T04:18:30;12.60;73.20
913;DHT22;443;51.448;7.028;2022-11-27T04:20:57;12.60;74.40
913;DHT22;443;51.448;7.028;2022-11-27T04:23:23;12.60;73.40
913;DHT22;443;51.448;7.028;2022-11-27T04:25:50;12.60;77.10
913;DHT22;443;51.448;7.028;2022-11-27T04:28:17;12.90;77.80
913;DHT22;443;51.448;7.028;2022-11-27T04:30:44;12.80;73.90
913;DHT22;443;51.448;7.028;2022-11-27T04:33:15;12.80;77.50
913;DHT22;443;51.448;7.028;2022-11-27T04:35:43;12.80;73.30
913;DHT22;443;51.448;7.028;2022-11-27T04:38:10;12.90;76.50
913;DHT22;443;51.448;7.028;2022-11-27T04:40:37;12.70;72.40
913;DHT22;443;51.448;7.028;2022-11-27T04:43:04;12.70;72.70
913;DHT22;443;51.448;7.028;2022-11-27T04:45:31;12.70;73.80
913;DHT22;443;51.448;7.028;2022-11-27T04:47:58;12.70;74.70
913;DHT22;443;51.448;7.028;2022-11-27T04:50:25;12.80;75.00
913;DHT22;443;51.448;7.028;2022-11-27T04:52:53;12.80;74.20
913;DHT22;443;51.448;7.028;2022-11-27T04:55:20;12.80;75.80
913;DHT22;443;51.448;7.028;2022-11-27T04:57:48;12.70;74.00
913;DHT22;443;51.448;7.028;2022-11-27T05:00:15;12.70;72.90
913;DHT22;443;51.448;7.028;2022-11-27T05:02:42;12.80;73.80
913;DHT22;443;51.448;7.028;2022-11-27T05:05:09;12.60;71.20
913;DHT22;443;51.448;7.028;2022-11-27T05:07:36;12.70;71.30
913;DHT22;443;51.448;7.028;2022-11-27T05:10:05;12.70;74.60
913;DHT22;443;51.448;7.028;2022-11-27T05:12:32;12.70;71.60
913;DHT22;443;51.448;7.028;2022-11-27T05:14:59;12.70;74.00
913;DHT22;443;51.448;7.028;2022-11-27T05:17:25;12.60;71.90
913;DHT22;443;51.448;7.028;2022-11-27T05:19:52;12.70;71.80
913;DHT22;443;51.448;7.028;2022-11-27T05:22:19;12.60;70.30
913;DHT22;443;51.448;7.028;2022-11-27T05:24:45;12.60;72.80
913;DHT22;443;51.448;7.028;2022-11-27T05:27:14;12.50;72.70
913;DHT22;443;51.448;7.028;2022-11-27T05:29:40;12.60;72.30
913;DHT22;443;51.448;7.028;2022-11-27T05:32:08;12.60;73.20
913;DHT22;443;51.448;7.028;2022-11-27T05:34:34;12.60;70.80
913;DHT22;443;51.448;7.028;2022-11-27T05:37:01;12.70;72.50
913;DHT22;443;51.448;7.028;2022-11-27T05:39:28;12.60;70.50
913;DHT22;443;51.448;7.028;2022-11-27T05:41:55;12.70;71.40
913;DHT22;443;51.448;7.028;2022-11-27T05:44:23;12.70;71.20
913;DHT22;443;51.448;7.028;2022-11-27T05:46:49;12.70;70.90
913;DHT22;443;51.448;7.028;2022-11-27T05:49:17;12.70;70.80
913;DHT22;443;51.448;7.028;2022-11-27T05:51:44;12.90;73.80
913;DHT22;443;51.448;7.028;2022-11-27T05:54:11;12.80;72.00
913;DHT22;443;51.448;7.028;2022-11-27T05:56:37;12.70;70.80
913;DHT22;443;51.448;7.028;2022-11-27T05:59:04;12.80;71.40
913;DHT22;443;51.448;7.028;2022-11-27T06:01:33;12.80;71.20
913;DHT22;443;51.448;7.028;2022-11-27T06:03:59;12.90;72.30
913;DHT22;443;51.448;7.028;2022-11-27T06:06:26;12.90;72.50
913;DHT22;443;51.448;7.028;2022-11-27T06:08:53;12.90;73.60
913;DHT22;443;51.448;7.028;2022-11-27T06:11:21;12.90;71.70
913;DHT22;443;51.448;7.028;2022-11-27T06:13:48;13.00;72.30
913;DHT22;443;51.448;7.028;2022-11-27T06:16:17;12.90;70.50
913;DHT22;443;51.448;7.028;2022-11-27T06:18:48;13.00;72.70
913;DHT22;443;51.448;7.028;2022-11-27T06:21:15;13.00;72.40
913;DHT22;443;51.448;7.028;2022-11-27T06:23:43;13.00;70.30
913;DHT22;443;51.448;7.028;2022-11-27T06:26:11;13.00;71.40
913;DHT22;443;51.448;7.028;2022-11-27T06:28:38;12.90;70.80
913;DHT22;443;51.448;7.028;2022-11-27T06:31:07;13.00;75.10
913;DHT22;443;51.448;7.028;2022-11-27T06:33:33;13.10;71.90
913;DHT22;443;51.448;7.028;2022-11-27T06:36:02;13.20;70.00
913;DHT22;443;51.448;7.028;2022-11-27T06:38:30;13.10;71.20
913;DHT22;443;51.448;7.028;2022-11-27T06:41:01;13.10;72.20
913;DHT22;443;51.448;7.028;2022-11-27T06:43:28;13.10;72.20
913;DHT22;443;51.448;7.028;2022-11-27T06:45:55;13.10;71.70
913;DHT22;443;51.448;7.028;2022-11-27T06:48:22;13.20;71.80
913;DHT22;443;51.448;7.028;2022-11-27T06:50:49;13.20;73.00
913;DHT22;443;51.448;7.028;2022-11-27T06:53:18;13.10;71.50
913;DHT22;443;51.448;7.028;2022-11-27T06:55:45;13.10;72.20
913;DHT22;443;51.448;7.028;2022-11-27T06:58:12;13.00;70.10
913;DHT22;443;51.448;7.028;2022-11-27T07:00:39;13.00;71.90
913;DHT22;443;51.448;7.028;2022-11-27T07:03:06;13.00;72.70
913;DHT22;443;51.448;7.028;2022-11-27T07:05:32;13.10;72.40
913;DHT22;443;51.448;7.028;2022-11-27T07:07:59;13.10;70.30
913;DHT22;443;51.448;7.028;2022-11-27T07:10:27;13.10;73.20
913;DHT22;443;51.448;7.028;2022-11-27T07:12:55;13.10;72.00
913;DHT22;443;51.448;7.028;2022-11-27T07:15:22;13.00;70.40
913;DHT22;443;51.448;7.028;2022-11-27T07:17:48;13.20;72.90
913;DHT22;443;51.448;7.028;2022-11-27T07:20:15;13.20;71.40
913;DHT22;443;51.448;7.028;2022-11-27T07:22:42;13.10;70.40
913;DHT22;443;51.448;7.028;2022-11-27T07:25:09;13.10;71.80
913;DHT22;443;51.448;7.028;2022-11-27T07:27:37;13.20;71.40
913;DHT22;443;51.448;7.028;2022-11-27T07:30:05;13.20;73.40
913;DHT22;443;51.448;7.028;2022-11-27T07:32:33;13.20;74.10
913;DHT22;443;51.448;7.028;2022-11-27T07:35:00;13.20;71.00
913;DHT22;443;51.448;7.028;2022-11-27T07:37:29;13.20;70.80
913;DHT22;443;51.448;7.028;2022-11-27T07:39:56;13.20;72.40
913;DHT22;443;51.448;7.028;2022-11-27T07:42:23;13.20;72.80
913;DHT22;443;51.448;7.028;2022-11-27T07:44:52;13.10;70.70
913;DHT22;443;51.448;7.028;2022-11-27T07:47:19;13.10;71.50
913;DHT22;443;51.448;7.028;2022-11-27T07:49:46;13.30;75.70
913;DHT22;443;51.448;7.028;2022-11-27T07:52:12;13.30;72.80
913;DHT22;443;51.448;7.028;2022-11-27T07:54:39;13.20;70.50
913;DHT22;443;51.448;7.028;2022-11-27T07:57:06;13.20;70.50
913;DHT22;443;51.448;7.028;2022-11-27T07:59:32;13.40;76.70
913;DHT22;443;51.448;7.028;2022-11-27T08:02:00;13.40;73.10
913;DHT22;443;51.448;7.028;2022-11-27T08:04:27;13.40;71.90
913;DHT22;443;51.448;7.028;2022-11-27T08:06:55;13.30;71.30
913;DHT22;443;51.448;7.028;2022-11-27T08:09:23;13.30;70.80
913;DHT22;443;51.448;7.028;2022-11-27T08:11:49;13.40;73.00
913;DHT22;443;51.448;7.028;2022-11-27T08:14:16;13.30;70.50
913;DHT22;443;51.448;7.028;2022-11-27T08:16:43;13.30;71.40
913;DHT22;443;51.448;7.028;2022-11-27T08:19:11;13.40;73.10
913;DHT22;443;51.448;7.028;2022-11-27T08:21:38;13.40;74.40
913;DHT22;443;51.448;7.028;2022-11-27T08:24:06;13.40;73.60
913;DHT22;443;51.448;7.028;2022-11-27T08:26:32;13.30;69.60
913;DHT22;443;51.448;7.028;2022-11-27T08:28:59;13.50;75.90
913;DHT22;443;51.448;7.028;2022-11-27T08:31:26;13.50;73.40
913;DHT22;443;51.448;7.028;2022-11-27T08:33:53;13.50;73.10
913;DHT22;443;51.448;7.028;2022-11-27T08:36:23;13.40;70.50
913;DHT22;443;51.448;7.028;2022-11-27T08:38:51;13.50;71.80
913;DHT22;443;51.448;7.028;2022-11-27T08:41:18;13.50;70.90
913;DHT22;443;51.448;7.028;2022-11-27T08:43:44;13.50;71.60
913;DHT22;443;51.448;7.028;2022-11-27T08:46:12;13.50;73.50
913;DHT22;443;51.448;7.028;2022-11-27T08:48:39;13.50;70.40
913;DHT22;443;51.448;7.028;2022-11-27T08:51:08;13.60;71.20
913;DHT22;443;51.448;7.028;2022-11-27T08:53:36;13.70;72.60
913;DHT22;443;51.448;7.028;2022-11-27T08:56:05;13.50;70.40
913;DHT22;443;51.448;7.028;2022-11-27T08:58:32;13.60;71.80
913;DHT22;443;51.448;7.028;2022-11-27T09:01:05;13.80;75.60
913;DHT22;443;51.448;7.028;2022-11-27T09:03:32;13.70;69.20
913;DHT22;443;51.448;7.028;2022-11-27T09:05:59;13.80;72.30
913;DHT22;443;51.448;7.028;2022-11-27T09:08:26;13.80;73.30
913;DHT22;443;51.448;7.028;2022-11-27T09:10:58;13.80;72.70
913;DHT22;443;51.448;7.028;2022-11-27T09:13:25;13.80;71.50
913;DHT22;443;51.448;7.028;2022-11-27T09:18:19;13.80;71.10
913;DHT22;443;51.448;7.028;2022-11-27T09:20:54;13.70;69.30
913;DHT22;443;51.448;7.028;2022-11-27T09:23:21;13.70;71.70
913;DHT22;443;51.448;7.028;2022-11-27T09:25:47;13.80;71.00
913;DHT22;443;51.448;7.028;2022-11-27T09:28:16;13.80;72.00
913;DHT22;443;51.448;7.028;2022-11-27T09:30:42;13.80;68.50
913;DHT22;443;51.448;7.028;2022-11-27T09:33:09;13.80;71.10
913;DHT22;443;51.448;7.028;2022-11-27T09:35:36;13.80;70.00
913;DHT22;443;51.448;7.028;2022-11-27T09:38:03;13.60;66.90
913;DHT22;443;51.448;7.028;2022-11-27T09:40:30;13.70;66.90
913;DHT22;443;51.448;7.028;2022-11-27T09:42:59;13.80;73.70
913;DHT22;443;51.448;7.028;2022-11-27T09:45:29;13.80;67.60
913;DHT22;443;51.448;7.028;2022-11-27T09:48:01;13.80;71.10
913;DHT22;443;51.448;7.028;2022-11-27T09:50:29;14.10;76.90
913;DHT22;443;51.448;7.028;2022-11-27T09:53:03;14.40;78.10
913;DHT22;443;51.448;7.028;2022-11-27T09:55:32;14.20;71.30
913;DHT22;443;51.448;7.028;2022-11-27T09:58:04;14.10;66.30
913;DHT22;443;51.448;7.028;2022-11-27T10:00:33;14.00;70.00
913;DHT22;443;51.448;7.028;2022-11-27T10:03:00;14.00;67.60
913;DHT22;443;51.448;7.028;2022-11-27T10:05:33;14.00;71.60
913;DHT22;443;51.448;7.028;2022-11-27T10:08:19;14.10;71.60
913;DHT22;443;51.448;7.028;2022-11-27T10:10:59;14.10;70.80
913;DHT22;443;51.448;7.028;2022-11-27T10:13:39;14.00;66.40
913;DHT22;443;51.448;7.028;2022-11-27T10:16:17;14.10;70.50
913;DHT22;443;51.448;7.028;2022-11-27T10:18:48;14.10;68.80
913;DHT22;443;51.448;7.028;2022-11-27T10:21:24;14.20;71.20
913;DHT22;443;51.448;7.028;2022-11-27T10:23:56;14.10;69.70
913;DHT22;443;51.448;7.028;2022-11-27T10:26:30;14.00;68.00
913;DHT22;443;51.448;7.028;2022-11-27T10:29:04;14.10;70.20
913;DHT22;443;51.448;7.028;2022-11-27T10:31:39;14.00;67.70
913;DHT22;443;51.448;7.028;2022-11-27T10:34:19;14.10;70.50
913;DHT22;443;51.448;7.028;2022-11-27T10:36:49;14.20;73.70
913;DHT22;443;51.448;7.028;2022-11-27T10:39:20;14.10;72.90
913;DHT22;443;51.448;7.028;2022-11-27T10:41:53;14.10;69.40
913;DHT22;443;51.448;7.028;2022-11-27T10:44:26;14.10;67.80
913;DHT22;443;51.448;7.028;2022-11-27T10:46:59;14.10;67.40
913;DHT22;443;51.448;7.028;2022-11-27T10:49:27;14.20;73.00
913;DHT22;443;51.448;7.028;2022-11-27T10:51:53;14.10;68.30
913;DHT22;443;51.448;7.028;2022-11-27T10:54:24;14.20;69.10
913;DHT22;443;51.448;7.028;2022-11-27T10:57:04;14.10;66.00
913;DHT22;443;51.448;7.028;2022-11-27T10:59:36;14.20;73.50
913;DHT22;443;51.448;7.028;2022-11-27T11:02:25;14.30;73.50
913;DHT22;443;51.448;7.028;2022-11-27T11:04:52;14.10;66.60
913;DHT22;443;51.448;7.028;2022-11-27T11:07:23;14.10;68.90
913;DHT22;443;51.448;7.028;2022-11-27T11:09:51;14.10;65.70
913;DHT22;443;51.448;7.028;2022-11-27T11:12:21;14.00;67.30
913;DHT22;443;51.448;7.028;2022-11-27T11:14:53;14.20;72.30
913;DHT22;443;51.448;7.028;2022-11-27T11:17:24;14.10;69.40
913;DHT22;443;51.448;7.028;2022-11-27T11:19:51;14.10;66.60
913;DHT22;443;51.448;7.028;2022-11-27T11:22:19;14.10;70.50
913;DHT22;443;51.448;7.028;2022-11-27T11:24:47;14.20;72.40
913;DHT22;443;51.448;7.028;2022-11-27T11:27:17;14.10;66.90
913;DHT22;443;51.448;7.028;2022-11-27T11:29:47;14.10;70.60
913;DHT22;443;51.448;7.028;2022-11-27T11:32:21;14.20;72.90
913;DHT22;443;51.448;7.028;2022-11-27T11:34:52;14.40;75.20
913;DHT22;443;51.448;7.028;2022-11-27T11:37:23;14.40;72.10
913;DHT22;443;51.448;7.028;2022-11-27T11:39:55;14.20;68.00
913;DHT22;443;51.448;7.028;2022-11-27T11:42:24;14.20;72.20
913;DHT22;443;51.448;7.028;2022-11-27T11:44:53;14.30;71.70
913;DHT22;443;51.448;7.028;2022-11-27T11:47:21;14.40;70.00
913;DHT22;443;51.448;7.028;2022-11-27T11:49:51;14.30;74.80
913;DHT22;443;51.448;7.028;2022-11-27T11:52:27;14.40;71.80
913;DHT22;443;51.448;7.028;2022-11-27T11:55:00;14.30;70.50
913;DHT22;443;51.448;7.028;2022-11-27T11:57:42;14.40;72.90
913;DHT22;443;51.448;7.028;2022-11-27T12:00:12;14.40;73.80
913;DHT22;443;51.448;7.028;2022-11-27T12:02:56;14.40;71.80
913;DHT22;443;51.448;7.028;2022-11-27T12:05:30;14.50;74.80
913;DHT22;443;51.448;7.028;2022-11-27T12:08:22;14.50;74.30
913;DHT22;443;51.448;7.028;2022-11-27T12:10:57;14.50;73.90
913;DHT22;443;51.448;7.028;2022-11-27T12:13:38;14.50;72.50
913;DHT22;443;51.448;7.028;2022-11-27T12:16:13;14.40;72.90
913;DHT22;443;51.448;7.028;2022-11-27T12:18:50;14.30;72.10
913;DHT22;443;51.448;7.028;2022-11-27T12:21:29;14.20;69.80
913;DHT22;443;51.448;7.028;2022-11-27T12:24:06;14.20;69.70
913;DHT22;443;51.448;7.028;2022-11-27T12:26:45;14.00;68.00
913;DHT22;443;51.448;7.028;2022-11-27T12:29:41;13.90;68.70
913;DHT22;443;51.448;7.028;2022-11-27T12:32:39;14.00;71.40
913;DHT22;443;51.448;7.028;2022-11-27T12:35:29;14.00;70.70
913;DHT22;443;51.448;7.028;2022-11-27T12:38:11;14.10;70.80
913;DHT22;443;51.448;7.028;2022-11-27T12:40:51;14.00;69.00
913;DHT22;443;51.448;7.028;2022-11-27T12:43:23;14.20;75.70
913;DHT22;443;51.448;7.028;2022-11-27T12:45:54;14.10;70.30
913;DHT22;443;51.448;7.028;2022-11-27T12:48:25;14.00;69.10
913;DHT22;443;51.448;7.028;2022-11-27T12:50:56;13.90;67.70
913;DHT22;443;51.448;7.028;2022-11-27T12:53:30;13.90;69.40
913;DHT22;443;51.448;7.028;2022-11-27T12:56:06;13.90;68.30
913;DHT22;443;51.448;7.028;2022-11-27T12:58:37;13.90;70.90
913;DHT22;443;51.448;7.028;2022-11-27T13:01:08;14.10;72.40
913;DHT22;443;51.448;7.028;2022-11-27T13:03:42;14.00;71.50
913;DHT22;443;51.448;7.028;2022-11-27T13:06:13;14.10;72.00
913;DHT22;443;51.448;7.028;2022-11-27T13:08:49;14.10;71.00
913;DHT22;443;51.448;7.028;2022-11-27T13:11:19;14.10;71.80
913;DHT22;443;51.448;7.028;2022-11-27T13:13:51;14.10;71.00
913;DHT22;443;51.448;7.028;2022-11-27T13:16:23;14.10;71.60
913;DHT22;443;51.448;7.028;2022-11-27T13:18:55;14.10;71.20
913;DHT22;443;51.448;7.028;2022-11-27T13:21:26;14.10;71.10
913;DHT22;443;51.448;7.028;2022-11-27T13:23:59;14.10;70.70
913;DHT22;443;51.448;7.028;2022-11-27T13:26:30;14.10;70.30
913;DHT22;443;51.448;7.028;2022-11-27T13:29:00;14.10;73.00
913;DHT22;443;51.448;7.028;2022-11-27T13:31:30;14.20;72.10
913;DHT22;443;51.448;7.028;2022-11-27T13:34:02;14.20;69.80
913;DHT22;443;51.448;7.028;2022-11-27T13:36:34;14.20;69.80
913;DHT22;443;51.448;7.028;2022-11-27T13:39:04;14.20;72.00
913;DHT22;443;51.448;7.028;2022-11-27T13:41:34;14.20;69.90
913;DHT22;443;51.448;7.028;2022-11-27T13:44:03;14.20;70.10
913;DHT22;443;51.448;7.028;2022-11-27T13:46:32;14.20;70.40
913;DHT22;443;51.448;7.028;2022-11-27T13:49:20;14.20;71.70
913;DHT22;443;51.448;7.028;2022-11-27T13:51:49;14.20;69.50
913;DHT22;443;51.448;7.028;2022-11-27T13:54:18;14.20;70.10
913;DHT22;443;51.448;7.028;2022-11-27T13:56:46;14.20;68.50
913;DHT22;443;51.448;7.028;2022-11-27T13:59:18;14.20;69.70
913;DHT22;443;51.448;7.028;2022-11-27T14:02:04;14.20;70.20
913;DHT22;443;51.448;7.028;2022-11-27T14:04:32;14.20;69.50
913;DHT22;443;51.448;7.028;2022-11-27T14:07:01;14.20;70.80
913;DHT22;443;51.448;7.028;2022-11-27T14:09:38;14.20;71.40
913;DHT22;443;51.448;7.028;2022-11-27T14:12:20;14.30;69.80
913;DHT22;443;51.448;7.028;2022-11-27T14:15:00;14.30;70.30
913;DHT22;443;51.448;7.028;2022-11-27T14:17:33;14.30;70.50
913;DHT22;443;51.448;7.028;2022-11-27T14:20:04;14.20;71.20
913;DHT22;443;51.448;7.028;2022-11-27T14:22:34;14.30;71.30
913;DHT22;443;51.448;7.028;2022-11-27T14:25:17;14.20;69.70
913;DHT22;443;51.448;7.028;2022-11-27T14:27:44;14.20;70.20
913;DHT22;443;51.448;7.028;2022-11-27T14:30:22;14.20;70.50
913;DHT22;443;51.448;7.028;2022-11-27T14:32:49;14.20;70.20
913;DHT22;443;51.448;7.028;2022-11-27T14:35:20;14.30;70.00
913;DHT22;443;51.448;7.028;2022-11-27T14:37:47;14.30;73.30
913;DHT22;443;51.448;7.028;2022-11-27T14:40:20;14.30;69.90
913;DHT22;443;51.448;7.028;2022-11-27T14:42:47;14.10;67.80
913;DHT22;443;51.448;7.028;2022-11-27T14:45:16;14.10;68.30
913;DHT22;443;51.448;7.028;2022-11-27T14:47:47;14.10;69.10
913;DHT22;443;51.448;7.028;2022-11-27T14:50:15;14.20;69.20
913;DHT22;443;51.448;7.028;2022-11-27T14:52:44;14.20;70.50
913;DHT22;443;51.448;7.028;2022-11-27T14:55:13;14.20;69.90
913;DHT22;443;51.448;7.028;2022-11-27T14:57:42;14.00;67.30
913;DHT22;443;51.448;7.028;2022-11-27T15:00:20;14.00;66.20
913;DHT22;443;51.448;7.028;2022-11-27T15:02:50;14.10;70.30
913;DHT22;443;51.448;7.028;2022-11-27T15:05:22;14.10;69.90
913;DHT22;443;51.448;7.028;2022-11-27T15:07:50;14.20;70.50
913;DHT22;443;51.448;7.028;2022-11-27T15:10:33;14.20;70.40
913;DHT22;443;51.448;7.028;2022-11-27T15:13:03;14.20;72.10
913;DHT22;443;51.448;7.028;2022-11-27T15:15:32;14.10;70.60
913;DHT22;443;51.448;7.028;2022-11-27T15:18:03;14.20;69.90
913;DHT22;443;51.448;7.028;2022-11-27T15:20:37;14.20;72.20
913;DHT22;443;51.448;7.028;2022-11-27T15:23:11;14.30;74.60
913;DHT22;443;51.448;7.028;2022-11-27T15:25:42;14.40;71.80
913;DHT22;443;51.448;7.028;2022-11-27T15:28:35;14.30;72.30
913;DHT22;443;51.448;7.028;2022-11-27T15:31:22;14.20;70.00
913;DHT22;443;51.448;7.028;2022-11-27T15:33:58;14.20;71.10
913;DHT22;443;51.448;7.028;2022-11-27T15:36:25;14.20;71.20
913;DHT22;443;51.448;7.028;2022-11-27T15:41:54;14.20;71.10
913;DHT22;443;51.448;7.028;2022-11-27T15:44:26;14.10;70.20
913;DHT22;443;51.448;7.028;2022-11-27T15:46:56;14.20;72.30
913;DHT22;443;51.448;7.028;2022-11-27T15:49:23;14.00;70.70
913;DHT22;443;51.448;7.028;2022-11-27T15:51:50;14.00;71.10
913;DHT22;443;51.448;7.028;2022-11-27T15:54:17;14.00;71.00
913;DHT22;443;51.448;7.028;2022-11-27T15:56:45;14.00;69.40
913;DHT22;443;51.448;7.028;2022-11-27T15:59:14;13.90;69.40
913;DHT22;443;51.448;7.028;2022-11-27T16:01:43;13.90;70.10
913;DHT22;443;51.448;7.028;2022-11-27T16:04:09;13.80;67.60
913;DHT22;443;51.448;7.028;2022-11-27T16:06:37;13.90;72.20
913;DHT22;443;51.448;7.028;2022-11-27T16:09:04;13.90;69.70
913;DHT22;443;51.448;7.028;2022-11-27T16:11:31;13.90;71.60
913;DHT22;443;51.448;7.028;2022-11-27T16:13:58;14.00;70.60
913;DHT22;443;51.448;7.028;2022-11-27T16:16:26;14.00;70.60
913;DHT22;443;51.448;7.028;2022-11-27T16:18:56;14.00;71.40
913;DHT22;443;51.448;7.028;2022-11-27T16:21:24;14.10;71.60
913;DHT22;443;51.448;7.028;2022-11-27T16:23:55;14.10;73.50
913;DHT22;443;51.448;7.028;2022-11-27T16:26:22;14.20;70.10
913;DHT22;443;51.448;7.028;2022-11-27T16:28:50;14.10;70.20
913;DHT22;443;51.448;7.028;2022-11-27T16:31:17;14.10;70.50
913;DHT22;443;51.448;7.028;2022-11-27T16:33:44;14.20;72.20
913;DHT22;443;51.448;7.028;2022-11-27T16:36:14;14.10;70.00
913;DHT22;443;51.448;7.028;2022-11-27T16:38:41;14.00;69.40
913;DHT22;443;51.448;7.028;2022-11-27T16:41:10;14.00;71.80
913;DHT22;443;51.448;7.028;2022-11-27T16:43:39;14.00;70.80
913;DHT22;443;51.448;7.028;2022-11-27T16:46:09;14.00;70.80
913;DHT22;443;51.448;7.028;2022-11-27T16:48:37;14.10;72.00
913;DHT22;443;51.448;7.028;2022-11-27T16:51:06;14.00;68.20
913;DHT22;443;51.448;7.028;2022-11-27T16:53:38;14.00;71.00
913;DHT22;443;51.448;7.028;2022-11-27T16:56:06;14.00;69.10
913;DHT22;443;51.448;7.028;2022-11-27T16:58:34;14.10;73.80